Atlantic Dawn — WDF7671 — position and weather

sailwx.info

Track history (hours):
 
Tides and Currents Weather Stations Pressure Air Temp Water Temp Dewpoint Dewpoint Depression Visibility Wind Speed Wind Dir Waves Ship Positions

Atlantic Dawn

Owner: Atlantic Dawn LLC, Gretna, LA. More information available from US FCC via Universal Licensing System and Coast Guard Vessel Documentation Center.

Last reported at 2018-Apr-23 18:58 UTC. Time now 2018-Apr-24 02:36 UTC.
Position N 36°50' W 076°16'.

Length 30 m; draft 3 m.

Type: Other ship. MMSI: 367486910.

Date/timePositionNaut miles runAvg speedWind from/ knotsBaromVisibWave heightAir tempDewpointWater temp
2018-Apr-23 18:58N 36°50' W 076°16'0 0.1
2018-Apr-23 18:13N 36°50' W 076°16'0 0.6
2018-Apr-23 17:55N 36°50' W 076°16'0 0.4
2018-Apr-23 17:30N 36°50' W 076°16'0 0.5
2018-Apr-23 17:00N 36°50' W 076°16'0 0.2
2018-Apr-23 16:30N 36°50' W 076°16'0 0.1
2018-Apr-23 15:16N 36°50' W 076°16'0 0.1
2018-Apr-23 14:38N 36°50' W 076°16'0 0.0
2018-Apr-23 14:21N 36°50' W 076°16'0 0.0
2018-Apr-23 14:00N 36°50' W 076°16'0 0.0
2018-Apr-23 13:26N 36°50' W 076°16'0 0.2
2018-Apr-23 12:59N 36°50' W 076°16'0 0.0
2018-Apr-23 12:30N 36°50' W 076°16'0 0.3
2018-Apr-23 11:59N 36°50' W 076°16'0 0.0
2018-Apr-23 11:29N 36°50' W 076°16'0 0.0
2018-Apr-23 11:00N 36°50' W 076°16'0 0.0
2018-Apr-23 10:30N 36°50' W 076°16'0 0.0
2018-Apr-23 08:49N 36°50' W 076°16'0 0.0
2018-Apr-23 08:30N 36°50' W 076°16'0 0.0
2018-Apr-23 08:00N 36°50' W 076°16'0 0.0
2018-Apr-23 07:30N 36°50' W 076°16'0 0.0
2018-Apr-23 04:56N 36°50' W 076°16'0 0.0
2018-Apr-23 02:26N 36°50' W 076°16'0 0.0
2018-Apr-23 00:47N 36°50' W 076°16'0 0.5
2018-Apr-23 00:30N 36°50' W 076°16'3 5.4
2018-Apr-23 00:00N 36°52' W 076°19'11 3.5
2018-Apr-22 21:00N 36°56' W 076°07'1 1.2
2018-Apr-22 20:25N 36°55' W 076°07'0 0.1
2018-Apr-22 19:37N 36°55' W 076°07'0 0.0
2018-Apr-22 19:25N 36°55' W 076°07'0 0.4
2018-Apr-22 18:54N 36°55' W 076°07'10 3.0
2018-Apr-22 15:27N 36°57' W 076°20'3 6.2
2018-Apr-22 15:00N 36°54' W 076°20'3 5.9
2018-Apr-22 14:30N 36°51' W 076°18'2 3.8
2018-Apr-22 14:00N 36°50' W 076°16'0 0.2
2018-Apr-22 13:30N 36°50' W 076°16'0 0.1
2018-Apr-22 13:00N 36°50' W 076°16'0 0.0
2018-Apr-22 12:23N 36°50' W 076°16'0 0.0
2018-Apr-21 14:06N 36°50' W 076°16'0 0.1
2018-Apr-21 13:59N 36°50' W 076°16'0 0.0
2018-Apr-21 13:29N 36°50' W 076°16'0 0.1
2018-Apr-21 13:00N 36°50' W 076°16'0 0.0
2018-Apr-21 12:30N 36°50' W 076°16'0 0.0
2018-Apr-21 11:39N 36°50' W 076°16'0 0.0
2018-Apr-21 11:27N 36°50' W 076°16'0 0.0
2018-Apr-21 10:48N 36°50' W 076°16'0 0.0
2018-Apr-21 10:30N 36°50' W 076°16'0 0.0
2018-Apr-21 09:59N 36°50' W 076°16'0 0.0
2018-Apr-21 09:30N 36°50' W 076°16'0 0.0
2018-Apr-21 09:00N 36°50' W 076°16'0 0.0
2018-Apr-21 08:30N 36°50' W 076°16'0 0.0
2018-Apr-21 08:00N 36°50' W 076°16'0 0.0
2018-Apr-21 07:30N 36°50' W 076°16'0 0.0
2018-Apr-21 07:00N 36°50' W 076°16'0 0.0
2018-Apr-21 06:30N 36°50' W 076°16'0 0.0
2018-Apr-21 06:00N 36°50' W 076°16'0 0.0
2018-Apr-21 05:30N 36°50' W 076°16'0 0.0
2018-Apr-21 05:00N 36°50' W 076°16'0 0.0
2018-Apr-21 04:30N 36°50' W 076°16'0 0.0
2018-Apr-21 04:00N 36°50' W 076°16'0 0.0
2018-Apr-21 03:30N 36°50' W 076°16'0 0.0
2018-Apr-21 03:00N 36°50' W 076°16'0 0.0
2018-Apr-21 02:30N 36°50' W 076°16'0 0.0
2018-Apr-21 02:00N 36°50' W 076°16'0 0.0
2018-Apr-21 01:30N 36°50' W 076°16'0 0.0
2018-Apr-21 01:00N 36°50' W 076°16'0 0.0
2018-Apr-21 00:16N 36°50' W 076°16'0 0.0
2018-Apr-20 23:28N 36°50' W 076°16'0 0.4
2018-Apr-20 23:00N 36°50' W 076°16'1 2.6
2018-Apr-20 22:30N 36°50' W 076°18'2 4.8
2018-Apr-20 22:00N 36°47' W 076°18'1 2.4
2018-Apr-20 21:30N 36°46' W 076°18'0 0.1
2018-Apr-20 21:00N 36°46' W 076°18'1 1.8
2018-Apr-20 20:30N 36°45' W 076°18'0 0.3
2018-Apr-20 20:00N 36°45' W 076°18'0 0.0
2018-Apr-20 19:30N 36°45' W 076°18'0 0.2
2018-Apr-20 19:00N 36°45' W 076°18'2 3.4
2018-Apr-20 18:30N 36°47' W 076°18'3 5.8
2018-Apr-20 18:00N 36°50' W 076°18'1 2.5
2018-Apr-20 17:30N 36°50' W 076°16'0 0.1
2018-Apr-20 17:00N 36°50' W 076°16'0 0.0
2018-Apr-20 16:30N 36°50' W 076°16'0 0.0
2018-Apr-20 15:59N 36°50' W 076°16'0 0.3
2018-Apr-20 15:26N 36°50' W 076°16'0 0.1
2018-Apr-20 14:57N 36°50' W 076°16'0 0.0
2018-Apr-20 14:30N 36°50' W 076°16'0 0.3
2018-Apr-20 14:00N 36°50' W 076°16'0 0.2
2018-Apr-20 13:26N 36°50' W 076°16'0 0.0
2018-Apr-20 13:00N 36°50' W 076°16'0 0.0
2018-Apr-20 12:29N 36°50' W 076°16'0 0.0
2018-Apr-20 12:00N 36°50' W 076°16'0 0.0
2018-Apr-20 11:30N 36°50' W 076°16'0 0.0
2018-Apr-20 11:00N 36°50' W 076°16'0 0.0
2018-Apr-20 10:30N 36°50' W 076°16'0 0.0
2018-Apr-20 10:00N 36°50' W 076°16'0 0.0
2018-Apr-20 09:30N 36°50' W 076°16'0 0.0
2018-Apr-19 23:56N 36°50' W 076°16'0 0.0
2018-Apr-19 23:30N 36°50' W 076°16'0 0.0
2018-Apr-19 20:35N 36°50' W 076°16'0 0.3
2018-Apr-19 20:30N 36°50' W 076°16'0 0.1
2018-Apr-19 19:17N 36°50' W 076°16'0 0.3
2018-Apr-19 18:59N 36°50' W 076°16'0 0.3
2018-Apr-19 18:30N 36°50' W 076°16'0 0.2
2018-Apr-19 17:52N 36°50' W 076°16'0 0.5
2018-Apr-19 17:30N 36°50' W 076°16'1 2.3
2018-Apr-19 17:00N 36°51' W 076°18'2 4.4
2018-Apr-19 16:30N 36°52' W 076°20'12 4.3
2018-Apr-19 13:43N 36°58' W 076°07'1 6.3
2018-Apr-19 13:30N 36°58' W 076°05'3 5.9
2018-Apr-19 13:00N 36°57' W 076°02'3 5.1
2018-Apr-19 12:30N 36°56' W 075°59'2 4.2
2018-Apr-19 11:57N 36°54' W 075°57'2 5.3
2018-Apr-19 11:30N 36°52' W 075°56'134 5.6
2018-Apr-18 11:20N 34°39' W 076°25'2 6.8
2018-Apr-18 11:00N 34°37' W 076°26'11 3.6
2018-Apr-18 07:56N 34°30' W 076°36'3 6.1
2018-Apr-18 07:24N 34°31' W 076°40'  
Track history (hours):
 
Tides and Currents Weather Stations Pressure Air Temp Water Temp Dewpoint Dewpoint Depression Visibility Wind Speed Wind Dir Waves Ship Positions

Atlantic Dawn

Owner: Atlantic Dawn LLC, Gretna, LA. More information available from US FCC via Universal Licensing System and Coast Guard Vessel Documentation Center.

Last reported at 2018-Apr-23 18:58 UTC. Time now 2018-Apr-24 02:36 UTC.
Position N 36°50' W 076°16'.

Length 30 m; draft 3 m.

Type: Other ship. MMSI: 367486910.

Date/timePositionNaut miles runAvg speedWind from/ knotsBaromVisibWave heightAir tempDewpointWater temp
2018-Apr-23 18:58N 36°50' W 076°16'0 0.1
2018-Apr-23 18:13N 36°50' W 076°16'0 0.6
2018-Apr-23 17:55N 36°50' W 076°16'0 0.4
2018-Apr-23 17:30N 36°50' W 076°16'0 0.5
2018-Apr-23 17:00N 36°50' W 076°16'0 0.2
2018-Apr-23 16:30N 36°50' W 076°16'0 0.1
2018-Apr-23 15:16N 36°50' W 076°16'0 0.1
2018-Apr-23 14:38N 36°50' W 076°16'0 0.0
2018-Apr-23 14:21N 36°50' W 076°16'0 0.0
2018-Apr-23 14:00N 36°50' W 076°16'0 0.0
2018-Apr-23 13:26N 36°50' W 076°16'0 0.2
2018-Apr-23 12:59N 36°50' W 076°16'0 0.0
2018-Apr-23 12:30N 36°50' W 076°16'0 0.3
2018-Apr-23 11:59N 36°50' W 076°16'0 0.0
2018-Apr-23 11:29N 36°50' W 076°16'0 0.0
2018-Apr-23 11:00N 36°50' W 076°16'0 0.0
2018-Apr-23 10:30N 36°50' W 076°16'0 0.0
2018-Apr-23 08:49N 36°50' W 076°16'0 0.0
2018-Apr-23 08:30N 36°50' W 076°16'0 0.0
2018-Apr-23 08:00N 36°50' W 076°16'0 0.0
2018-Apr-23 07:30N 36°50' W 076°16'0 0.0
2018-Apr-23 04:56N 36°50' W 076°16'0 0.0
2018-Apr-23 02:26N 36°50' W 076°16'0 0.0
2018-Apr-23 00:47N 36°50' W 076°16'0 0.5
2018-Apr-23 00:30N 36°50' W 076°16'3 5.4
2018-Apr-23 00:00N 36°52' W 076°19'11 3.5
2018-Apr-22 21:00N 36°56' W 076°07'1 1.2
2018-Apr-22 20:25N 36°55' W 076°07'0 0.1
2018-Apr-22 19:37N 36°55' W 076°07'0 0.0
2018-Apr-22 19:25N 36°55' W 076°07'0 0.4
2018-Apr-22 18:54N 36°55' W 076°07'10 3.0
2018-Apr-22 15:27N 36°57' W 076°20'3 6.2
2018-Apr-22 15:00N 36°54' W 076°20'3 5.9
2018-Apr-22 14:30N 36°51' W 076°18'2 3.8
2018-Apr-22 14:00N 36°50' W 076°16'0 0.2
2018-Apr-22 13:30N 36°50' W 076°16'0 0.1
2018-Apr-22 13:00N 36°50' W 076°16'0 0.0
2018-Apr-22 12:23N 36°50' W 076°16'0 0.0
2018-Apr-21 14:06N 36°50' W 076°16'0 0.1
2018-Apr-21 13:59N 36°50' W 076°16'0 0.0
2018-Apr-21 13:29N 36°50' W 076°16'0 0.1
2018-Apr-21 13:00N 36°50' W 076°16'0 0.0
2018-Apr-21 12:30N 36°50' W 076°16'0 0.0
2018-Apr-21 11:39N 36°50' W 076°16'0 0.0
2018-Apr-21 11:27N 36°50' W 076°16'0 0.0
2018-Apr-21 10:48N 36°50' W 076°16'0 0.0
2018-Apr-21 10:30N 36°50' W 076°16'0 0.0
2018-Apr-21 09:59N 36°50' W 076°16'0 0.0
2018-Apr-21 09:30N 36°50' W 076°16'0 0.0
2018-Apr-21 09:00N 36°50' W 076°16'0 0.0
2018-Apr-21 08:30N 36°50' W 076°16'0 0.0
2018-Apr-21 08:00N 36°50' W 076°16'0 0.0
2018-Apr-21 07:30N 36°50' W 076°16'0 0.0
2018-Apr-21 07:00N 36°50' W 076°16'0 0.0
2018-Apr-21 06:30N 36°50' W 076°16'0 0.0
2018-Apr-21 06:00N 36°50' W 076°16'0 0.0
2018-Apr-21 05:30N 36°50' W 076°16'0 0.0
2018-Apr-21 05:00N 36°50' W 076°16'0 0.0
2018-Apr-21 04:30N 36°50' W 076°16'0 0.0
2018-Apr-21 04:00N 36°50' W 076°16'0 0.0
2018-Apr-21 03:30N 36°50' W 076°16'0 0.0
2018-Apr-21 03:00N 36°50' W 076°16'0 0.0
2018-Apr-21 02:30N 36°50' W 076°16'0 0.0
2018-Apr-21 02:00N 36°50' W 076°16'0 0.0
2018-Apr-21 01:30N 36°50' W 076°16'0 0.0
2018-Apr-21 01:00N 36°50' W 076°16'0 0.0
2018-Apr-21 00:16N 36°50' W 076°16'0 0.0
2018-Apr-20 23:28N 36°50' W 076°16'0 0.4
2018-Apr-20 23:00N 36°50' W 076°16'1 2.6
2018-Apr-20 22:30N 36°50' W 076°18'2 4.8
2018-Apr-20 22:00N 36°47' W 076°18'1 2.4
2018-Apr-20 21:30N 36°46' W 076°18'0 0.1
2018-Apr-20 21:00N 36°46' W 076°18'1 1.8
2018-Apr-20 20:30N 36°45' W 076°18'0 0.3
2018-Apr-20 20:00N 36°45' W 076°18'0 0.0
2018-Apr-20 19:30N 36°45' W 076°18'0 0.2
2018-Apr-20 19:00N 36°45' W 076°18'2 3.4
2018-Apr-20 18:30N 36°47' W 076°18'3 5.8
2018-Apr-20 18:00N 36°50' W 076°18'1 2.5
2018-Apr-20 17:30N 36°50' W 076°16'0 0.1
2018-Apr-20 17:00N 36°50' W 076°16'0 0.0
2018-Apr-20 16:30N 36°50' W 076°16'0 0.0
2018-Apr-20 15:59N 36°50' W 076°16'0 0.3
2018-Apr-20 15:26N 36°50' W 076°16'0 0.1
2018-Apr-20 14:57N 36°50' W 076°16'0 0.0
2018-Apr-20 14:30N 36°50' W 076°16'0 0.3
2018-Apr-20 14:00N 36°50' W 076°16'0 0.2
2018-Apr-20 13:26N 36°50' W 076°16'0 0.0
2018-Apr-20 13:00N 36°50' W 076°16'0 0.0
2018-Apr-20 12:29N 36°50' W 076°16'0 0.0
2018-Apr-20 12:00N 36°50' W 076°16'0 0.0
2018-Apr-20 11:30N 36°50' W 076°16'0 0.0
2018-Apr-20 11:00N 36°50' W 076°16'0 0.0
2018-Apr-20 10:30N 36°50' W 076°16'0 0.0
2018-Apr-20 10:00N 36°50' W 076°16'0 0.0
2018-Apr-20 09:30N 36°50' W 076°16'0 0.0
2018-Apr-19 23:56N 36°50' W 076°16'0 0.0
2018-Apr-19 23:30N 36°50' W 076°16'0 0.0
2018-Apr-19 20:35N 36°50' W 076°16'0 0.3
2018-Apr-19 20:30N 36°50' W 076°16'0 0.1
2018-Apr-19 19:17N 36°50' W 076°16'0 0.3
2018-Apr-19 18:59N 36°50' W 076°16'0 0.3
2018-Apr-19 18:30N 36°50' W 076°16'0 0.2
2018-Apr-19 17:52N 36°50' W 076°16'0 0.5
2018-Apr-19 17:30N 36°50' W 076°16'1 2.3
2018-Apr-19 17:00N 36°51' W 076°18'2 4.4
2018-Apr-19 16:30N 36°52' W 076°20'12 4.3
2018-Apr-19 13:43N 36°58' W 076°07'1 6.3
2018-Apr-19 13:30N 36°58' W 076°05'3 5.9
2018-Apr-19 13:00N 36°57' W 076°02'3 5.1
2018-Apr-19 12:30N 36°56' W 075°59'2 4.2
2018-Apr-19 11:57N 36°54' W 075°57'2 5.3
2018-Apr-19 11:30N 36°52' W 075°56'134 5.6
2018-Apr-18 11:20N 34°39' W 076°25'2 6.8
2018-Apr-18 11:00N 34°37' W 076°26'11 3.6
2018-Apr-18 07:56N 34°30' W 076°36'3 6.1
2018-Apr-18 07:24N 34°31' W 076°40'  

Dump ship's entire track history